KONT

Ontario International Airport

Ontario, California, USA
METAR KONT 161153Z 00000KT 10SM CLR 08/M01 A3010 RMK AO2 SLP188 T00781006 10133 20078 58001
Observed Flight Rules
Dec-16 @ 11:53 UTC (an hour ago) Visual Flight Rules
Visibility Clouds
10 miles
  • Clear skies
Temperatures Readings
Current 8°C / 46°F
Dewpoint -1°C / 30°F
Humidity 53%
Altimeter 30.1" Hg
Pressure 1018.8 hPa
Elevation 274
METAR KONT 161153Z 00000KT 10SM CLR 08/M01 A3010 RMK AO2 SLP188 T00781006 10133 20078 58001
Observed Flight Rules
Dec-16 @ 11:53 UTC
(an hour ago)
VFR
Clouds
  • Clear skies
Temperature Dewpoint
8°C / 46°F -1°C / 30°F
Humidity Altimeter Pressure
53% 30.1" Hg 1018.8 hPa